Skellytown, Texas
Current Conditions -  °F | °C
As of 6:35 AM on Saturday 22 Nov 2014 (Local Time) from KPPA Reporting Station
Haze Haze  
Wind Chill: 38°   Ceiling: Unl
Heat Index: 43°   Visibility: 5mi
Dew Point: 42°   Wind: 8mph
Humidity: 97%   Direction: 260°W
Pressure: 29.95"   Gusts: NA
Location:  35.58°N, 101.18°W
Report Text: KPPA 221235Z AUTO 26007KT 5SM BR CLR 06/06 A2995 RMK AO2 LTG DSNT S T00590055 PNO
Loading
Personal Weather Stations






























Interactive Weather Map New forecast layout! Learn more

10-Day Weather Forecast

Advertisements
Track Severe Weather on mobile